Issaquah, Washington
Current Conditions -  °F | °C
As of 7:53 PM on Friday 28 Nov 2014 (Local Time) from KRNT Reporting Station
Light Rain Light Rain  
Wind Chill: 34°   Ceiling: 3500
Heat Index: 39°   Visibility: 6mi
Dew Point: 38°   Wind: 7mph
Humidity: 96%   Direction: 160°SSE
Pressure: 29.52"   Gusts: NA
Location:  47.53°N, 122.03°W
Report Text: KRNT 290353Z 16006KT 6SM -RA BR FEW020 SCT028 OVC035 04/03 A2952 RMK AO2 SLP001 P0001 T00390033
Loading
Personal Weather Stations






























Interactive Weather Map New forecast layout! Learn more

10-Day Weather Forecast

Advertisements
Track Severe Weather on mobile